San Diego, California
Traffic Map
Current Weather Conditions
San Diego, California
Broken Clouds
Broken Clouds
61°
Feels Like: 61°
Wind Chill: 61° Ceiling: 3100
Heat Index: 61° Visibility: 10mi
Dew Point: 49° Wind: 3mph
Humidity: 64% Direction: 290° (WNW)
Pressure: 29.96in Gusts: 0mph
Raw Report DataKSAN 260851Z 29003KT 10SM BKN031 BKN200 16/09 A2996 RMK AO2 SLP146 T01610094 58004
Traffic Incident Summary
Active as of:
Severity:
Category:
InformationThere was an issue retrieving the traffic information for this location. Please try a different location or try again shortly.
Advertisements
Track Severe Weather on mobile